Time;durP1;ratioP1;P1;durP2;ratioP2;P2;SDS_P1;SDS_P2;PMS_P1;PMS_P2;Temp;Humidity;BMP_temperature;BMP_pressure;BME280_temperature;BME280_humidity;BME280_pressure;Samples;Min_cycle;Max_cycle;Signal;HPM_P1;HPM_P2
2022/05/30 00:01:24;;;;;;;5.23;3.67;;;8.90;97.10;;;;;;4994537;28;20476;-77
2022/05/30 00:04:09;;;;;;;3.83;3.13;;;8.80;97.80;;;;;;4990070;28;20470;-78
2022/05/30 00:06:55;;;;;;;3.53;2.80;;;8.70;99.90;;;;;;4993697;28;20530;-77
2022/05/30 00:09:41;;;;;;;4.00;3.10;;;8.80;99.90;;;;;;4995137;28;20520;-77
2022/05/30 00:12:28;;;;;;;7.00;3.20;;;9.00;99.90;;;;;;4993303;28;20527;-78
2022/05/30 00:15:17;;;;;;;3.60;2.87;;;9.20;99.90;;;;;;4992560;28;20797;-77
2022/05/30 00:18:02;;;;;;;4.00;3.43;;;9.30;99.30;;;;;;4994536;28;20567;-77
2022/05/30 00:20:49;;;;;;;4.53;3.23;;;9.40;98.20;;;;;;4994336;28;20927;-77
2022/05/30 00:23:35;;;;;;;4.60;3.43;;;9.40;97.30;;;;;;4991744;28;20466;-76
2022/05/30 00:26:21;;;;;;;6.10;2.93;;;9.30;97.40;;;;;;4988479;28;20464;-77
2022/05/30 00:29:08;;;;;;;3.50;2.87;;;9.20;97.50;;;;;;4993175;28;20570;-76
2022/05/30 00:31:54;;;;;;;5.77;3.10;;;9.00;98.10;;;;;;4993240;28;20433;-77
2022/05/30 00:34:40;;;;;;;5.80;3.13;;;9.00;98.50;;;;;;4992765;28;20421;-77
2022/05/30 00:37:27;;;;;;;3.80;3.37;;;8.90;98.60;;;;;;4992634;28;20467;-77
2022/05/30 00:40:13;;;;;;;4.23;2.87;;;9.00;98.20;;;;;;4993393;28;20474;-77
2022/05/30 00:43:25;;;;;;;3.93;3.30;;;9.10;97.20;;;;;;4988082;28;20604;-79
2022/05/30 00:46:15;;;;;;;4.17;3.40;;;9.00;97.40;;;;;;4990951;28;20503;-79
2022/05/30 00:49:03;;;;;;;3.47;3.13;;;8.80;98.20;;;;;;4992352;28;20450;-78
2022/05/30 00:51:53;;;;;;;4.27;3.40;;;8.90;98.40;;;;;;4991774;28;20703;-77
2022/05/30 00:54:43;;;;;;;5.83;3.63;;;8.90;98.10;;;;;;4985228;28;20447;-79
2022/05/30 00:57:32;;;;;;;8.17;3.10;;;8.90;98.20;;;;;;4988485;28;20449;-78
2022/05/30 01:00:21;;;;;;;5.13;3.10;;;8.90;98.80;;;;;;4993315;28;20488;-79
2022/05/30 01:09:18;;;;;;;3.80;3.07;;;9.10;97.20;;;;;;4991611;28;20993;-77
2022/05/30 01:12:07;;;;;;;3.67;3.00;;;9.00;97.00;;;;;;4989081;28;20444;-75
2022/05/30 01:14:52;;;;;;;4.80;3.33;;;8.90;97.00;;;;;;4990487;28;20549;-78
2022/05/30 01:17:47;;;;;;;3.70;3.03;;;8.80;97.10;;;;;;4988721;28;20505;-78
2022/05/30 01:20:48;;;;;;;3.70;2.90;;;8.80;97.50;;;;;;4988332;28;20473;-78
2022/05/30 01:23:58;;;;;;;4.20;3.07;;;8.80;97.40;;;;;;4985941;28;20468;-77
2022/05/30 01:27:02;;;;;;;4.10;3.60;;;8.50;97.90;;;;;;4991859;28;20433;-78
2022/05/30 01:29:55;;;;;;;6.27;3.33;;;8.40;98.00;;;;;;4990878;28;20432;-78
2022/05/30 01:32:41;;;;;;;8.00;3.40;;;8.40;98.50;;;;;;4988705;28;20537;-77
2022/05/30 01:35:29;;;;;;;3.43;2.93;;;8.20;98.90;;;;;;4991270;28;20790;-77
2022/05/30 01:38:15;;;;;;;3.50;2.90;;;8.10;99.40;;;;;;4991354;28;21026;-77
2022/05/30 01:41:01;;;;;;;4.83;3.03;;;8.10;99.20;;;;;;4990895;28;20589;-77
2022/05/30 01:43:46;;;;;;;3.40;3.10;;;8.10;99.00;;;;;;4989804;28;20904;-77
2022/05/30 01:46:34;;;;;;;4.70;3.57;;;8.10;98.90;;;;;;4985686;28;20481;-78
2022/05/30 01:49:19;;;;;;;6.83;3.63;;;8.20;98.70;;;;;;4991010;28;20491;-77
2022/05/30 01:52:06;;;;;;;3.00;2.70;;;8.40;98.30;;;;;;4985402;28;20474;-77
2022/05/30 01:54:52;;;;;;;3.57;3.03;;;8.40;97.80;;;;;;4990490;28;20429;-77
2022/05/30 01:57:38;;;;;;;4.40;3.63;;;8.40;97.60;;;;;;4991894;28;20416;-77
2022/05/30 02:00:25;;;;;;;4.37;3.67;;;8.30;97.60;;;;;;4991189;28;20509;-77
2022/05/30 02:03:11;;;;;;;4.33;3.53;;;8.30;97.70;;;;;;4988365;28;20940;-76
2022/05/30 02:05:57;;;;;;;3.50;3.03;;;8.30;97.70;;;;;;4987132;28;20444;-77
2022/05/30 02:08:44;;;;;;;4.87;3.00;;;8.40;97.80;;;;;;4988908;28;20775;-76
2022/05/30 02:11:29;;;;;;;3.90;3.30;;;8.40;97.40;;;;;;4987296;28;20547;-77
2022/05/30 02:14:15;;;;;;;3.70;3.10;;;8.20;97.50;;;;;;4990523;28;20968;-77
2022/05/30 02:17:04;;;;;;;5.30;3.63;;;8.20;97.70;;;;;;4989635;28;20956;-77
2022/05/30 02:19:51;;;;;;;4.40;3.30;;;7.90;98.80;;;;;;4989465;28;20433;-77
2022/05/30 02:22:37;;;;;;;4.00;3.17;;;8.00;99.00;;;;;;4987034;28;20438;-77
2022/05/30 02:25:22;;;;;;;3.07;2.70;;;8.00;98.70;;;;;;4989223;28;20465;-76
2022/05/30 02:28:08;;;;;;;4.73;3.33;;;8.10;98.80;;;;;;4989086;28;20878;-76
2022/05/30 02:30:53;;;;;;;5.00;3.37;;;8.10;98.30;;;;;;4985276;28;20437;-77
2022/05/30 02:36:44;;;;;;;4.53;3.40;;;8.00;98.40;;;;;;4989782;28;20467;-76
2022/05/30 02:39:31;;;;;;;4.57;3.53;;;8.10;98.50;;;;;;4989379;28;20485;-76
2022/05/30 02:42:16;;;;;;;4.27;3.20;;;8.10;98.40;;;;;;4986928;28;20462;-76
2022/05/30 02:45:02;;;;;;;3.80;3.40;;;8.20;98.00;;;;;;4987502;28;20472;-76
2022/05/30 02:47:47;;;;;;;5.10;3.80;;;8.20;97.10;;;;;;4988714;28;20472;-76
2022/05/30 02:50:33;;;;;;;4.83;3.20;;;8.30;96.90;;;;;;4981814;28;20456;-76
2022/05/30 02:53:20;;;;;;;6.00;3.47;;;8.20;96.90;;;;;;4989701;28;20516;-77
2022/05/30 02:56:06;;;;;;;3.27;2.97;;;8.10;97.10;;;;;;4987508;28;21186;-77
2022/05/30 02:58:51;;;;;;;3.70;3.00;;;8.10;97.20;;;;;;4988082;28;20499;-76
2022/05/30 03:01:37;;;;;;;7.10;3.10;;;8.10;97.20;;;;;;4983949;28;20456;-77
2022/05/30 03:04:23;;;;;;;5.10;3.13;;;8.00;97.80;;;;;;4988015;28;20979;-76
2022/05/30 03:07:09;;;;;;;8.87;3.50;;;8.10;98.00;;;;;;4989062;28;20432;-76
2022/05/30 03:09:56;;;;;;;6.57;3.50;;;8.10;97.80;;;;;;4986211;28;21119;-77
2022/05/30 03:12:41;;;;;;;4.97;3.30;;;7.90;97.80;;;;;;4986582;28;20418;-76
2022/05/30 03:15:27;;;;;;;5.00;4.10;;;7.50;98.70;;;;;;4989176;28;20417;-77
2022/05/30 03:18:13;;;;;;;5.50;3.57;;;7.40;99.80;;;;;;4988787;28;20412;-76
2022/05/30 03:20:59;;;;;;;5.37;4.30;;;7.50;99.90;;;;;;4983215;28;20452;-77
2022/05/30 03:23:45;;;;;;;6.50;3.60;;;7.50;99.10;;;;;;4990182;28;20497;-77
2022/05/30 03:26:32;;;;;;;3.40;3.07;;;7.50;99.20;;;;;;4987917;28;20470;-77
2022/05/30 03:29:17;;;;;;;4.53;3.67;;;7.30;99.80;;;;;;4987428;28;20457;-76
2022/05/30 03:32:03;;;;;;;5.20;3.63;;;7.40;99.90;;;;;;4983809;28;20445;-77
2022/05/30 03:34:49;;;;;;;5.40;3.40;;;7.60;99.90;;;;;;4984496;28;20424;-76
2022/05/30 03:37:36;;;;;;;5.33;3.57;;;7.60;99.40;;;;;;4984719;28;20679;-76
2022/05/30 03:40:22;;;;;;;4.60;3.30;;;7.70;98.90;;;;;;4984976;28;20949;-77
2022/05/30 03:43:11;;;;;;;3.37;2.90;;;7.80;99.50;;;;;;4991520;28;20420;-77
2022/05/30 03:45:57;;;;;;;3.10;2.60;;;7.90;99.00;;;;;;4990855;28;20581;-77
2022/05/30 03:48:43;;;;;;;4.30;3.40;;;7.70;98.50;;;;;;4990766;28;20468;-76
2022/05/30 03:51:29;;;;;;;8.50;3.77;;;7.50;99.40;;;;;;4988348;28;20490;-76
2022/05/30 03:54:14;;;;;;;4.60;3.80;;;7.30;99.90;;;;;;4988662;28;21252;-76
2022/05/30 03:57:00;;;;;;;4.77;3.50;;;7.20;99.90;;;;;;4990704;28;20446;-77
2022/05/30 03:59:47;;;;;;;4.10;3.07;;;7.40;99.90;;;;;;4987516;28;20983;-77
2022/05/30 04:02:33;;;;;;;5.90;3.10;;;7.50;99.90;;;;;;4988338;28;20486;-77
2022/05/30 04:05:20;;;;;;;4.00;2.90;;;7.60;99.90;;;;;;4991408;28;20602;-77
2022/05/30 04:08:06;;;;;;;4.30;3.47;;;7.80;99.90;;;;;;4990139;28;20589;-76
2022/05/30 04:10:52;;;;;;;3.50;3.00;;;7.90;99.90;;;;;;4986965;28;20599;-77
2022/05/30 04:13:38;;;;;;;3.67;3.07;;;7.90;99.90;;;;;;4987788;28;20458;-77
2022/05/30 04:16:25;;;;;;;4.10;2.77;;;7.80;99.90;;;;;;4990887;28;20922;-77
2022/05/30 04:19:11;;;;;;;18.00;3.43;;;7.70;99.90;;;;;;4991633;28;20590;-77
2022/05/30 04:21:57;;;;;;;11.83;3.30;;;7.70;99.90;;;;;;4987176;28;20477;-77
2022/05/30 04:24:43;;;;;;;7.80;2.83;;;7.70;99.90;;;;;;4992013;28;20417;-77
2022/05/30 04:27:29;;;;;;;3.80;3.10;;;7.70;99.90;;;;;;4991893;28;20421;-77
2022/05/30 04:30:15;;;;;;;4.20;2.47;;;7.70;99.90;;;;;;4988389;28;20840;-77
2022/05/30 04:33:02;;;;;;;15.93;2.90;;;7.40;99.90;;;;;;4987372;28;20960;-77
2022/05/30 04:35:47;;;;;;;3.13;2.80;;;7.50;99.90;;;;;;4990520;28;20517;-77
2022/05/30 04:38:33;;;;;;;3.77;2.63;;;7.60;99.90;;;;;;4991938;28;20416;-77
2022/05/30 04:41:18;;;;;;;5.27;3.60;;;7.70;99.90;;;;;;4986608;28;20448;-77
2022/05/30 04:44:05;;;;;;;4.87;3.10;;;7.80;99.90;;;;;;4989258;28;20548;-76
2022/05/30 04:46:54;;;;;;;3.47;2.60;;;7.80;99.90;;;;;;4988808;28;20984;-77
2022/05/30 04:49:41;;;;;;;4.60;3.10;;;8.00;99.90;;;;;;4989189;28;20589;-76
2022/05/30 04:52:27;;;;;;;4.07;3.17;;;8.00;99.90;;;;;;4989389;28;20474;-77
2022/05/30 04:55:15;;;;;;;3.97;3.23;;;8.10;99.90;;;;;;4987764;28;20485;-76
2022/05/30 04:58:00;;;;;;;4.13;3.10;;;8.00;99.90;;;;;;4990729;28;20433;-76
2022/05/30 05:00:47;;;;;;;5.37;3.43;;;8.10;99.90;;;;;;4988144;28;20529;-77
2022/05/30 05:03:33;;;;;;;4.30;3.33;;;8.20;99.90;;;;;;4987263;28;20430;-76
2022/05/30 05:06:21;;;;;;;4.03;3.13;;;8.40;99.90;;;;;;4992541;28;20513;-76
2022/05/30 05:09:31;;;;;;;7.13;4.00;;;8.50;99.90;;;;;;4989365;28;21053;-76
2022/05/30 05:12:17;;;;;;;4.60;3.20;;;8.70;99.90;;;;;;4989908;28;20459;-77
2022/05/30 05:15:02;;;;;;;4.40;2.83;;;8.80;99.90;;;;;;4988814;28;20958;-76
2022/05/30 05:17:48;;;;;;;4.43;3.50;;;9.00;99.90;;;;;;4987188;28;20542;-77
2022/05/30 05:20:39;;;;;;;3.67;3.00;;;9.20;99.90;;;;;;4984789;28;20670;-77
2022/05/30 05:23:26;;;;;;;6.90;2.80;;;9.40;99.90;;;;;;4990897;28;20442;-77
2022/05/30 05:26:11;;;;;;;3.80;3.13;;;9.40;99.90;;;;;;4989721;28;20456;-77
2022/05/30 05:28:58;;;;;;;3.87;2.77;;;9.60;99.90;;;;;;4985060;28;20786;-77
2022/05/30 05:31:44;;;;;;;4.97;3.60;;;9.70;99.90;;;;;;4991802;28;20462;-77
2022/05/30 05:34:29;;;;;;;5.40;4.10;;;9.80;99.90;;;;;;4990570;28;20446;-77
2022/05/30 05:37:15;;;;;;;5.43;3.90;;;10.00;99.90;;;;;;4991051;28;20418;-77
2022/05/30 05:40:02;;;;;;;5.93;3.43;;;10.10;99.90;;;;;;4982296;28;20951;-77
2022/05/30 05:42:47;;;;;;;5.97;3.73;;;10.20;99.90;;;;;;4986863;28;20487;-77
2022/05/30 05:45:34;;;;;;;5.70;3.60;;;10.30;99.90;;;;;;4987699;28;20915;-76
2022/05/30 05:48:20;;;;;;;4.50;3.67;;;10.40;99.90;;;;;;4988518;28;20442;-77
2022/05/30 05:51:06;;;;;;;9.43;4.53;;;10.60;99.90;;;;;;4990073;28;20954;-77
2022/05/30 05:53:53;;;;;;;7.60;4.40;;;10.80;99.90;;;;;;4990716;28;20450;-77
2022/05/30 05:56:40;;;;;;;4.70;3.53;;;10.90;99.90;;;;;;4983403;28;20786;-77
2022/05/30 05:59:26;;;;;;;5.50;4.23;;;11.00;99.90;;;;;;4986201;28;20460;-77
2022/05/30 06:02:11;;;;;;;4.80;4.00;;;11.20;99.90;;;;;;4988683;28;20896;-77
2022/05/30 06:04:57;;;;;;;4.50;3.83;;;11.20;99.90;;;;;;4986455;28;20503;-77
2022/05/30 06:07:45;;;;;;;5.93;4.37;;;11.40;99.90;;;;;;4990369;28;20440;-77
2022/05/30 06:10:30;;;;;;;7.83;4.37;;;11.50;99.90;;;;;;4985111;28;20496;-77
2022/05/30 06:13:17;;;;;;;5.03;3.13;;;11.60;99.90;;;;;;4988118;28;20461;-77
2022/05/30 06:16:06;;;;;;;6.83;4.03;;;11.60;99.90;;;;;;4989420;28;20515;-77
2022/05/30 06:18:54;;;;;;;6.50;3.93;;;11.70;99.90;;;;;;4980325;28;20820;-77
2022/05/30 06:21:40;;;;;;;6.13;3.47;;;11.90;99.90;;;;;;4989352;28;20520;-77
2022/05/30 06:24:26;;;;;;;7.00;3.37;;;12.00;99.90;;;;;;4987654;28;20560;-77
2022/05/30 06:27:17;;;;;;;4.43;3.40;;;12.20;99.90;;;;;;4989449;28;20452;-77
2022/05/30 06:30:05;;;;;;;7.80;3.37;;;12.30;99.90;;;;;;4985551;28;20930;-75
2022/05/30 06:32:50;;;;;;;3.70;2.40;;;12.50;99.90;;;;;;4988305;28;20458;-77
2022/05/30 06:35:40;;;;;;;4.13;2.40;;;12.60;99.90;;;;;;4989999;28;20476;-77
2022/05/30 06:38:26;;;;;;;4.70;2.43;;;12.60;99.90;;;;;;4985375;28;20449;-76
2022/05/30 06:41:15;;;;;;;2.80;2.07;;;12.80;99.90;;;;;;4988399;28;21026;-77
2022/05/30 06:44:04;;;;;;;3.23;2.10;;;12.90;99.90;;;;;;4984659;28;20462;-76
2022/05/30 06:46:51;;;;;;;2.83;2.00;;;13.00;99.90;;;;;;4989943;28;20477;-77
2022/05/30 06:49:36;;;;;;;5.10;2.00;;;13.10;97.70;;;;;;4986552;28;21200;-77
2022/05/30 06:52:22;;;;;;;6.13;1.93;;;13.30;98.00;;;;;;4990591;28;20594;-77
2022/05/30 06:55:09;;;;;;;3.60;1.80;;;13.30;96.40;;;;;;4987907;28;20970;-77
2022/05/30 06:58:13;;;;;;;4.60;1.73;;;13.30;91.80;;;;;;4985960;28;20472;-77
2022/05/30 07:01:03;;;;;;;2.50;1.30;;;13.40;92.70;;;;;;4985593;28;20486;-77
2022/05/30 07:03:50;;;;;;;5.13;1.70;;;13.60;94.80;;;;;;5034471;22;20551;-72
2022/05/30 07:06:36;;;;;;;6.07;1.80;;;13.60;89.40;;;;;;5030447;28;20484;-73
2022/05/30 07:09:21;;;;;;;3.07;1.10;;;13.70;87.70;;;;;;5013710;28;20559;-72
2022/05/30 07:12:09;;;;;;;2.77;1.80;;;13.70;84.60;;;;;;5031072;28;20439;-73
2022/05/30 07:14:55;;;;;;;3.00;1.30;;;13.80;87.10;;;;;;5031279;28;20420;-72
2022/05/30 07:17:41;;;;;;;2.70;1.30;;;14.00;87.50;;;;;;5027026;28;20487;-73
2022/05/30 07:20:29;;;;;;;3.20;1.27;;;14.20;85.80;;;;;;5029747;28;20960;-72
2022/05/30 07:23:15;;;;;;;5.00;1.33;;;14.40;84.80;;;;;;5033137;28;20472;-73
2022/05/30 07:26:02;;;;;;;3.60;1.53;;;14.50;79.40;;;;;;5028198;28;20458;-72
2022/05/30 07:28:48;;;;;;;3.83;1.20;;;14.60;78.40;;;;;;5026969;28;20434;-72
2022/05/30 07:31:34;;;;;;;8.90;1.50;;;14.80;77.10;;;;;;5033509;28;20440;-72
2022/05/30 07:34:19;;;;;;;2.97;1.50;;;14.90;76.80;;;;;;5030639;28;20824;-73
2022/05/30 07:37:06;;;;;;;3.00;1.50;;;14.80;73.20;;;;;;5024126;28;20426;-72
2022/05/30 07:39:52;;;;;;;4.63;1.30;;;14.80;74.50;;;;;;5030563;28;20980;-73
2022/05/30 07:42:37;;;;;;;4.00;1.60;;;14.90;74.90;;;;;;5030635;28;20441;-73
2022/05/30 07:45:23;;;;;;;2.47;1.20;;;14.90;72.80;;;;;;5029612;28;20827;-73
2022/05/30 07:48:09;;;;;;;4.10;1.53;;;14.90;72.40;;;;;;5021435;28;21301;-72
2022/05/30 07:50:56;;;;;;;2.27;1.20;;;14.60;70.50;;;;;;5029420;28;20430;-72
2022/05/30 07:53:44;;;;;;;6.33;1.97;;;14.60;71.70;;;;;;5033201;28;20623;-72
2022/05/30 07:56:30;;;;;;;2.53;1.30;;;14.80;74.50;;;;;;5029679;28;20531;-72
2022/05/30 07:59:15;;;;;;;3.50;1.20;;;15.00;70.50;;;;;;5030223;28;20490;-73
2022/05/30 08:02:01;;;;;;;2.57;1.13;;;15.10;66.70;;;;;;5030050;28;20775;-73
2022/05/30 08:04:46;;;;;;;3.87;1.20;;;15.00;63.90;;;;;;5026830;28;20427;-73
2022/05/30 08:07:32;;;;;;;2.67;1.20;;;15.10;63.20;;;;;;5021785;28;20978;-74
2022/05/30 08:10:21;;;;;;;2.33;0.97;;;15.30;65.00;;;;;;5030850;28;21009;-74
2022/05/30 08:13:07;;;;;;;3.13;1.47;;;15.40;65.00;;;;;;5030129;28;20480;-74
2022/05/30 08:15:53;;;;;;;2.37;1.13;;;15.30;61.90;;;;;;5028481;28;20475;-74
2022/05/30 08:18:38;;;;;;;2.53;1.27;;;15.40;61.20;;;;;;5021509;28;20503;-74
2022/05/30 08:21:24;;;;;;;5.40;1.07;;;15.60;58.50;;;;;;5019622;28;20765;-74
2022/05/30 08:24:09;;;;;;;2.13;0.97;;;15.70;59.70;;;;;;5029277;28;20546;-74
2022/05/30 08:26:56;;;;;;;2.40;1.10;;;15.80;60.00;;;;;;5021441;28;20969;-74
2022/05/30 08:29:43;;;;;;;2.07;0.90;;;15.90;55.70;;;;;;5027995;28;20490;-74
2022/05/30 08:32:36;;;;;;;2.53;1.20;;;15.70;58.00;;;;;;5030249;28;20462;-74
2022/05/30 08:35:23;;;;;;;2.63;1.10;;;15.60;59.00;;;;;;5028626;28;20444;-74
2022/05/30 08:38:10;;;;;;;2.20;1.43;;;15.60;61.80;;;;;;5026305;28;20452;-74
2022/05/30 08:44:02;;;;;;;3.70;1.30;;;15.20;64.00;;;;;;5027873;28;20480;-74
2022/05/30 08:46:58;;;;;;;2.60;1.30;;;15.00;65.00;;;;;;5021812;28;20451;-74
2022/05/30 08:49:49;;;;;;;4.13;1.33;;;14.70;69.30;;;;;;5029149;28;20531;-74
2022/05/30 08:52:47;;;;;;;3.70;1.30;;;14.70;71.50;;;;;;5031345;28;20460;-72
2022/05/30 08:55:44;;;;;;;3.30;1.40;;;14.70;69.60;;;;;;5028617;28;20795;-73
2022/05/30 08:58:39;;;;;;;2.33;1.30;;;14.60;70.80;;;;;;5029050;28;20860;-74
2022/05/30 09:01:32;;;;;;;3.90;1.53;;;14.40;72.20;;;;;;5022894;28;20801;-73
2022/05/30 09:04:25;;;;;;;4.17;1.27;;;14.30;72.30;;;;;;5031138;28;20452;-74
2022/05/30 09:07:16;;;;;;;4.10;1.47;;;14.20;76.50;;;;;;5013364;28;20838;-74
2022/05/30 09:10:09;;;;;;;7.50;2.40;;;14.20;75.40;;;;;;5012885;28;20479;-74
2022/05/30 09:13:04;;;;;;;2.93;1.50;;;14.20;75.00;;;;;;5012927;28;20949;-74
2022/05/30 09:15:58;;;;;;;3.53;1.30;;;14.30;75.30;;;;;;5025116;28;20451;-72
2022/05/30 09:18:49;;;;;;;7.40;1.77;;;14.30;76.50;;;;;;5031498;28;20429;-71
2022/05/30 09:21:35;;;;;;;2.43;1.33;;;14.30;76.50;;;;;;5017913;28;20562;-73
2022/05/30 09:24:21;;;;;;;2.50;1.40;;;14.40;76.40;;;;;;5026786;28;20986;-71
2022/05/30 09:27:07;;;;;;;6.57;1.57;;;14.50;74.50;;;;;;5023509;28;20499;-72
2022/05/30 09:29:57;;;;;;;2.87;1.27;;;14.90;70.40;;;;;;5031370;28;20527;-71
2022/05/30 09:32:54;;;;;;;2.43;1.20;;;15.40;65.00;;;;;;5032135;28;20464;-72
2022/05/30 09:35:43;;;;;;;3.03;1.50;;;15.80;65.40;;;;;;5023063;28;20494;-72
2022/05/30 09:38:29;;;;;;;3.23;1.40;;;16.20;65.60;;;;;;5028237;28;20452;-72
2022/05/30 09:41:23;;;;;;;5.40;1.40;;;16.60;62.10;;;;;;5028825;28;20449;-72
2022/05/30 09:44:20;;;;;;;6.93;1.40;;;16.90;60.30;;;;;;5029383;28;20443;-72
2022/05/30 09:47:14;;;;;;;4.00;1.10;;;17.10;54.90;;;;;;5028103;28;20469;-71
2022/05/30 09:50:13;;;;;;;6.40;1.20;;;17.40;50.90;;;;;;5028426;28;20459;-72
2022/05/30 09:53:00;;;;;;;2.73;1.20;;;17.40;50.60;;;;;;5028980;28;20447;-72
2022/05/30 09:55:51;;;;;;;4.70;1.10;;;17.20;45.90;;;;;;5023886;28;20449;-72
2022/05/30 09:58:49;;;;;;;3.83;1.20;;;17.10;48.90;;;;;;5025612;28;20448;-72
2022/05/30 10:01:37;;;;;;;3.70;1.00;;;16.60;46.40;;;;;;5024165;28;20539;-71
2022/05/30 10:04:34;;;;;;;4.07;1.30;;;16.40;47.90;;;;;;5020313;28;20528;-72
2022/05/30 10:07:21;;;;;;;7.63;1.53;;;16.20;51.00;;;;;;5027675;28;20496;-71
2022/05/30 10:10:19;;;;;;;2.20;1.20;;;16.10;52.40;;;;;;5026970;28;20448;-72
2022/05/30 10:13:07;;;;;;;3.20;0.90;;;16.00;49.50;;;;;;5028899;28;20984;-72
2022/05/30 10:15:57;;;;;;;2.37;1.03;;;15.90;51.60;;;;;;5021606;28;20522;-72
2022/05/30 10:18:54;;;;;;;2.53;1.00;;;15.90;50.20;;;;;;5027178;28;20766;-72
2022/05/30 10:28:41;;;;;;;3.17;1.30;;;15.80;56.20;;;;;;5028403;28;20476;-72
2022/05/30 10:31:36;;;;;;;2.73;1.27;;;15.90;56.60;;;;;;5025496;28;20456;-72
2022/05/30 10:34:54;;;;;;;2.10;1.30;;;16.00;54.60;;;;;;5022091;28;20841;-71
2022/05/30 10:38:07;;;;;;;2.57;1.20;;;15.80;54.80;;;;;;5025840;28;20551;-72
2022/05/30 10:41:03;;;;;;;3.10;1.47;;;15.70;54.60;;;;;;5027368;28;20453;-72
2022/05/30 10:43:58;;;;;;;1.70;0.90;;;15.80;56.30;;;;;;5022623;28;20495;-71
2022/05/30 10:46:53;;;;;;;2.20;1.20;;;15.90;53.10;;;;;;5026172;28;20583;-72
2022/05/30 10:49:42;;;;;;;5.10;1.40;;;15.90;54.50;;;;;;5026915;28;20809;-72
2022/05/30 10:52:33;;;;;;;5.67;1.40;;;15.90;54.30;;;;;;5034475;28;20471;-72
2022/05/30 10:55:24;;;;;;;2.77;1.10;;;15.90;55.60;;;;;;5026934;28;20509;-72
2022/05/30 10:58:22;;;;;;;1.80;1.17;;;16.00;50.80;;;;;;5034707;28;20452;-72
2022/05/30 11:01:16;;;;;;;4.23;1.40;;;15.90;53.60;;;;;;5029997;28;20579;-71
2022/05/30 11:04:22;;;;;;;1.83;1.10;;;15.90;55.20;;;;;;5024112;28;21004;-72
2022/05/30 11:07:26;;;;;;;3.60;1.20;;;15.90;49.30;;;;;;5024050;28;20528;-71
2022/05/30 11:10:32;;;;;;;3.27;1.37;;;16.00;49.90;;;;;;5030582;28;20447;-73
2022/05/30 11:13:34;;;;;;;2.60;1.13;;;16.00;52.00;;;;;;5027430;28;20898;-74
2022/05/30 11:16:34;;;;;;;3.40;1.40;;;16.00;54.30;;;;;;5025541;28;20444;-74
2022/05/30 11:19:24;;;;;;;3.60;1.40;;;16.00;55.00;;;;;;5015110;28;20392;-73
2022/05/30 11:22:15;;;;;;;2.00;1.00;;;16.10;55.90;;;;;;5021054;28;20479;-74
2022/05/30 11:25:01;;;;;;;2.00;1.23;;;16.30;51.90;;;;;;5029812;28;20436;-74
2022/05/30 11:27:59;;;;;;;5.20;1.40;;;16.50;52.90;;;;;;5034127;28;20494;-74
2022/05/30 11:30:52;;;;;;;2.67;2.07;;;16.80;51.10;;;;;;5034696;28;20483;-74
2022/05/30 11:34:04;;;;;;;1.77;0.90;;;17.20;51.70;;;;;;5023707;28;20659;-74
2022/05/30 11:37:14;;;;;;;4.80;1.57;;;17.70;49.20;;;;;;5014656;28;20411;-74
2022/05/30 11:40:13;;;;;;;2.47;1.03;;;18.10;43.80;;;;;;5014543;28;20426;-74
2022/05/30 11:43:18;;;;;;;3.77;1.33;;;18.30;42.50;;;;;;5014569;28;20526;-74
2022/05/30 11:46:13;;;;;;;2.83;1.33;;;18.50;41.40;;;;;;5014194;28;20536;-74
2022/05/30 11:49:07;;;;;;;7.20;1.50;;;18.50;40.90;;;;;;5014257;28;20464;-74
2022/05/30 11:52:07;;;;;;;2.70;1.00;;;18.40;40.20;;;;;;5017663;28;20441;-75
2022/05/30 11:55:16;;;;;;;2.60;1.50;;;18.50;43.50;;;;;;5028727;28;20782;-74
2022/05/30 11:58:10;;;;;;;3.07;1.10;;;18.80;39.50;;;;;;5034111;28;20483;-75
2022/05/30 12:00:58;;;;;;;2.27;1.27;;;19.00;36.40;;;;;;5032113;28;20424;-74
2022/05/30 12:04:17;;;;;;;1.67;0.90;;;19.30;38.80;;;;;;5021991;28;20483;-73
2022/05/30 12:07:27;;;;;;;2.47;1.17;;;19.50;36.60;;;;;;5017356;28;20440;-72
2022/05/30 12:10:26;;;;;;;2.10;1.20;;;19.70;34.90;;;;;;5028161;28;20575;-72
2022/05/30 12:13:28;;;;;;;2.83;1.43;;;19.70;32.20;;;;;;5025329;28;20488;-72
2022/05/30 12:16:21;;;;;;;5.20;1.20;;;19.70;37.10;;;;;;5031248;28;20461;-71
2022/05/30 12:25:50;;;;;;;2.63;1.40;;;20.20;30.20;;;;;;5027111;28;20459;-70
2022/05/30 12:29:03;;;;;;;2.77;1.10;;;20.20;32.40;;;;;;5033393;28;20442;-70
2022/05/30 12:32:16;;;;;;;3.10;0.93;;;20.20;30.20;;;;;;5012336;28;20452;-71
2022/05/30 12:35:23;;;;;;;2.07;1.10;;;20.30;33.40;;;;;;5032221;28;20455;-70
2022/05/30 12:38:15;;;;;;;2.67;0.90;;;20.30;30.40;;;;;;5041412;28;20440;-70
2022/05/30 12:41:20;;;;;;;4.23;1.37;;;20.00;33.40;;;;;;5028435;28;20453;-70
2022/05/30 12:44:23;;;;;;;5.20;1.57;;;19.60;32.10;;;;;;5024541;28;20853;-70
2022/05/30 12:47:14;;;;;;;3.93;1.23;;;19.40;33.90;;;;;;5024553;28;20988;-70
2022/05/30 12:50:40;;;;;;;7.50;1.07;;;19.10;33.50;;;;;;5029860;28;20492;-71
2022/05/30 12:54:04;;;;;;;3.43;1.03;;;18.80;35.50;;;;;;5023797;28;21009;-71
2022/05/30 12:57:22;;;;;;;3.00;0.97;;;18.80;35.40;;;;;;5026888;28;20580;-70
2022/05/30 13:00:25;;;;;;;3.97;1.50;;;18.90;32.10;;;;;;5022409;28;20451;-70
2022/05/30 13:03:33;;;;;;;3.57;1.93;;;18.90;31.80;;;;;;5040281;23;20880;-73
2022/05/30 13:06:25;;;;;;;5.20;1.30;;;18.50;31.80;;;;;;5031641;28;20510;-74
2022/05/30 13:09:18;;;;;;;4.47;1.20;;;18.50;33.00;;;;;;5028528;28;20835;-74
2022/05/30 13:15:45;;;;;;;1.80;1.10;;;18.60;33.40;;;;;;5000266;28;21036;-74
2022/05/30 13:18:31;;;;;;;3.27;1.27;;;19.00;33.50;;;;;;5002203;28;20438;-74
2022/05/30 13:21:20;;;;;;;3.00;1.10;;;19.40;33.90;;;;;;5006375;28;20461;-73
2022/05/30 13:24:25;;;;;;;2.93;1.10;;;19.50;32.70;;;;;;5010498;28;20473;-74
2022/05/30 13:27:12;;;;;;;5.80;1.07;;;19.50;34.20;;;;;;4999833;28;20787;-74
2022/05/30 13:30:03;;;;;;;2.07;1.10;;;19.70;33.90;;;;;;5005983;28;20441;-73
2022/05/30 13:32:51;;;;;;;5.17;1.10;;;19.90;34.30;;;;;;5001339;28;20490;-74
2022/05/30 13:35:39;;;;;;;8.10;1.20;;;20.10;32.60;;;;;;5002136;28;20425;-74
2022/05/30 13:38:34;;;;;;;4.47;1.13;;;20.20;31.40;;;;;;4999096;28;20455;-74
2022/05/30 13:41:28;;;;;;;2.73;1.10;;;20.40;31.10;;;;;;5003026;28;20955;-73
2022/05/30 13:44:17;;;;;;;2.40;0.93;;;20.30;30.00;;;;;;5007421;28;20476;-74
2022/05/30 13:47:07;;;;;;;3.37;1.30;;;19.50;29.70;;;;;;5001249;28;20546;-74
2022/05/30 13:49:54;;;;;;;5.93;1.03;;;18.90;31.00;;;;;;5001176;28;20477;-74
2022/05/30 13:52:40;;;;;;;5.90;1.50;;;18.60;33.60;;;;;;5002073;28;20438;-73
2022/05/30 13:55:26;;;;;;;3.20;1.77;;;18.20;32.10;;;;;;5002031;28;20466;-74
2022/05/30 13:58:13;;;;;;;2.37;1.00;;;18.30;36.30;;;;;;4999748;28;20441;-74
2022/05/30 14:01:03;;;;;;;2.00;0.90;;;18.50;36.20;;;;;;5004767;28;20453;-75
2022/05/30 14:03:53;;;;;;;2.00;1.10;;;18.90;33.70;;;;;;5008242;28;20498;-74
2022/05/30 14:06:42;;;;;;;3.20;1.20;;;19.10;32.60;;;;;;5006627;28;20978;-73
2022/05/30 14:09:28;;;;;;;2.30;0.80;;;19.20;32.70;;;;;;5001064;28;20532;-73
2022/05/30 14:12:15;;;;;;;2.30;1.00;;;19.20;30.80;;;;;;5002671;28;20993;-74
2022/05/30 14:15:13;;;;;;;2.60;1.07;;;19.30;30.50;;;;;;5007815;28;20467;-74
2022/05/30 14:17:59;;;;;;;1.90;1.10;;;19.20;32.10;;;;;;5001355;28;20904;-74
2022/05/30 14:20:49;;;;;;;3.20;1.13;;;19.10;32.80;;;;;;4998029;28;20473;-74
2022/05/30 14:23:39;;;;;;;4.07;1.47;;;19.10;33.30;;;;;;5005582;28;20600;-74
2022/05/30 14:26:34;;;;;;;2.50;1.20;;;19.10;31.70;;;;;;5004274;28;20810;-74
2022/05/30 14:29:25;;;;;;;3.40;1.13;;;19.30;30.40;;;;;;5008101;28;20469;-74
2022/05/30 14:32:31;;;;;;;2.73;1.23;;;19.40;31.80;;;;;;5006756;28;20512;-71
2022/05/30 14:35:26;;;;;;;2.67;1.10;;;19.60;30.60;;;;;;5006781;28;20453;-71
2022/05/30 14:38:24;;;;;;;2.00;1.00;;;19.80;31.50;;;;;;5005345;28;20903;-71
2022/05/30 14:41:10;;;;;;;2.90;1.60;;;19.80;31.30;;;;;;5002444;28;20444;-72
2022/05/30 14:43:57;;;;;;;3.27;1.30;;;19.60;33.10;;;;;;5006762;28;20596;-71
2022/05/30 14:46:44;;;;;;;3.30;1.40;;;19.50;32.00;;;;;;5007989;28;20453;-71
2022/05/30 14:49:32;;;;;;;2.97;1.20;;;19.20;34.50;;;;;;5001237;28;21102;-70
2022/05/30 14:52:29;;;;;;;3.57;1.23;;;19.00;34.00;;;;;;5007126;28;20469;-71
2022/05/30 14:55:22;;;;;;;3.60;1.00;;;18.80;33.50;;;;;;5004767;28;20462;-70
2022/05/30 14:58:11;;;;;;;3.23;1.30;;;18.70;34.70;;;;;;5003085;28;20536;-71
2022/05/30 15:00:59;;;;;;;2.20;1.20;;;18.70;34.70;;;;;;5002953;28;20859;-70
2022/05/30 15:06:59;;;;;;;2.03;1.10;;;19.20;35.20;;;;;;5001830;28;20452;-71
2022/05/30 15:09:48;;;;;;;3.47;1.17;;;19.30;32.90;;;;;;5002447;28;20477;-70
2022/05/30 15:12:33;;;;;;;2.23;1.27;;;19.30;31.70;;;;;;5004498;28;20581;-71
2022/05/30 15:15:19;;;;;;;2.30;1.07;;;19.20;33.80;;;;;;5005093;28;20465;-71
2022/05/30 15:18:05;;;;;;;5.03;1.17;;;19.10;34.90;;;;;;5007407;28;20448;-71
2022/05/30 15:20:51;;;;;;;5.47;1.30;;;19.00;34.00;;;;;;5002437;28;20625;-72
2022/05/30 15:23:39;;;;;;;2.73;1.20;;;19.10;33.00;;;;;;5003726;28;20998;-72